Time;durP1;ratioP1;P1;durP2;ratioP2;P2;SDS_P1;SDS_P2;PMS_P1;PMS_P2;Temp;Humidity;BMP_temperature;BMP_pressure;BME280_temperature;BME280_humidity;BME280_pressure;Samples;Min_cycle;Max_cycle;Signal;HPM_P1;HPM_P2
2022/12/27 00:00:29;;;;;;;1.43;0.90;;;7.10;99.90;;;;;;5073603;28;20447;-73
2022/12/27 00:02:56;;;;;;;0.97;0.60;;;;;;;;;;5073613;28;20493;-73
2022/12/27 00:05:23;;;;;;;1.83;1.10;;;;;;;;;;5072185;28;20533;-73
2022/12/27 00:07:51;;;;;;;1.13;1.03;;;;;;;;;;5073392;28;20476;-73
2022/12/27 00:10:18;;;;;;;1.93;0.73;;;;;;;;;;5072267;28;20453;-73
2022/12/27 00:12:45;;;;;;;0.70;0.50;;;;;;;;;;5073198;28;20453;-72
2022/12/27 00:15:13;;;;;;;0.73;0.50;;;;;;;;;;5059557;28;20451;-73
2022/12/27 00:17:40;;;;;;;1.40;0.73;;;;;;;;;;5073233;28;20461;-73
2022/12/27 00:20:08;;;;;;;0.87;0.53;;;;;;;;;;5072221;28;20443;-73
2022/12/27 00:22:35;;;;;;;0.90;0.60;;;;;;;;;;5073089;28;20484;-73
2022/12/27 00:25:02;;;;;;;1.17;0.70;;;;;;;;;;5072430;28;20944;-72
2022/12/27 00:27:29;;;;;;;4.60;0.83;;;;;;;;;;5073050;28;20460;-73
2022/12/27 00:29:56;;;;;;;1.20;0.80;;;;;;;;;;5072793;28;20453;-73
2022/12/27 00:32:25;;;;;;;1.93;0.50;;;;;;;;;;5072371;28;20462;-73
2022/12/27 00:34:52;;;;;;;1.03;0.70;;;6.90;99.90;;;;;;5072778;28;20453;-73
2022/12/27 00:37:19;;;;;;;2.30;1.00;;;6.40;1.00;;;;;;5072069;28;20467;-73
2022/12/27 00:39:45;;;;;;;4.17;1.07;;;6.40;1.00;;;;;;5072373;28;20444;-73
2022/12/27 00:42:12;;;;;;;1.00;0.53;;;6.40;1.00;;;;;;5072113;28;20492;-73
2022/12/27 00:44:39;;;;;;;1.90;0.60;;;6.30;1.00;;;;;;5072788;28;20805;-73
2022/12/27 00:47:06;;;;;;;0.90;0.50;;;6.30;1.00;;;;;;5072038;28;20457;-73
2022/12/27 00:49:34;;;;;;;1.17;0.73;;;6.30;1.00;;;;;;5072211;28;20448;-73
2022/12/27 00:52:01;;;;;;;1.57;0.80;;;6.20;99.90;;;;;;5072089;28;20495;-72
2022/12/27 00:54:28;;;;;;;0.90;0.60;;;6.20;1.00;;;;;;5072690;28;20448;-73
2022/12/27 00:56:54;;;;;;;1.57;1.47;;;6.10;99.90;;;;;;5072690;28;20462;-73
2022/12/27 00:59:21;;;;;;;2.60;0.90;;;6.00;1.00;;;;;;5071325;28;20453;-73
2022/12/27 01:01:48;;;;;;;1.97;0.60;;;6.10;1.00;;;;;;5071870;28;20484;-73
2022/12/27 01:04:16;;;;;;;1.53;0.80;;;5.90;1.00;;;;;;5071839;28;20446;-73
2022/12/27 01:06:44;;;;;;;6.83;1.17;;;5.90;1.00;;;;;;5072021;28;20449;-73
2022/12/27 01:09:11;;;;;;;1.37;0.70;;;6.00;99.90;;;;;;5071189;28;20971;-73
2022/12/27 01:11:39;;;;;;;3.83;0.67;;;6.00;99.90;;;;;;5072112;28;20469;-73
2022/12/27 01:14:06;;;;;;;0.80;0.70;;;5.90;99.90;;;;;;5071490;28;20467;-73
2022/12/27 01:16:34;;;;;;;8.07;2.00;;;5.90;1.00;;;;;;5070822;28;20481;-73
2022/12/27 01:19:01;;;;;;;1.40;0.70;;;5.80;99.90;;;;;;5070963;28;20469;-72
2022/12/27 01:21:29;;;;;;;0.90;0.70;;;6.00;99.90;;;;;;5071750;28;20937;-73
2022/12/27 01:23:57;;;;;;;2.03;0.67;;;6.00;99.90;;;;;;5071998;28;20447;-73
2022/12/27 01:26:25;;;;;;;1.13;0.83;;;6.00;99.90;;;;;;5071483;28;20456;-73
2022/12/27 01:28:53;;;;;;;1.43;0.63;;;6.20;99.90;;;;;;5071349;28;20461;-73
2022/12/27 01:31:23;;;;;;;3.33;0.73;;;6.10;99.90;;;;;;5070843;28;20734;-73
2022/12/27 01:33:54;;;;;;;0.70;0.50;;;6.20;99.90;;;;;;5071412;28;20460;-73
2022/12/27 01:36:23;;;;;;;1.00;0.73;;;6.10;99.90;;;;;;5071293;28;20456;-73
2022/12/27 01:38:50;;;;;;;1.73;0.60;;;6.10;99.90;;;;;;5070854;28;20455;-73
2022/12/27 01:44:48;;;;;;;0.80;0.60;;;6.20;99.90;;;;;;5070701;28;20799;-73
2022/12/27 01:47:20;;;;;;;1.00;0.70;;;6.20;99.90;;;;;;5070727;28;20460;-73
2022/12/27 01:49:55;;;;;;;1.13;0.80;;;6.20;99.90;;;;;;5071555;28;20445;-73
2022/12/27 01:52:25;;;;;;;1.47;0.70;;;6.10;99.90;;;;;;5071065;28;20459;-73
2022/12/27 01:54:53;;;;;;;1.53;1.10;;;5.80;99.90;;;;;;5071242;28;20453;-73
2022/12/27 01:57:22;;;;;;;0.80;0.50;;;5.60;99.90;;;;;;5070731;28;20896;-73
2022/12/27 01:59:49;;;;;;;0.73;0.47;;;5.60;99.90;;;;;;5070872;28;20461;-73
2022/12/27 02:02:16;;;;;;;1.00;0.57;;;5.60;99.90;;;;;;5070414;28;20475;-74
2022/12/27 02:04:44;;;;;;;0.80;0.40;;;5.40;99.90;;;;;;5071345;28;20457;-74
2022/12/27 02:07:11;;;;;;;0.93;0.50;;;5.40;99.90;;;;;;5071181;28;20452;-73
2022/12/27 02:09:42;;;;;;;0.80;0.50;;;5.50;99.90;;;;;;5070876;28;20836;-73
2022/12/27 02:12:10;;;;;;;1.00;0.60;;;5.40;99.90;;;;;;5070752;28;20446;-73
2022/12/27 02:14:41;;;;;;;1.07;0.57;;;5.10;1.00;;;;;;5071106;28;20485;-74
2022/12/27 02:17:12;;;;;;;1.67;0.80;;;5.20;1.00;;;;;;5070519;28;20454;-73
2022/12/27 02:19:54;;;;;;;1.00;0.80;;;5.40;1.00;;;;;;5070293;28;20459;-74
2022/12/27 02:26:05;;;;;;;0.70;0.50;;;4.80;1.00;;;;;;5070815;28;20419;-73
2022/12/27 02:28:51;;;;;;;0.90;0.50;;;4.70;1.00;;;;;;5070197;28;20455;-73
2022/12/27 02:31:24;;;;;;;0.70;0.50;;;4.70;1.00;;;;;;5070527;28;21037;-73
2022/12/27 02:33:53;;;;;;;0.80;0.50;;;4.40;1.00;;;;;;5071032;28;20449;-73
2022/12/27 02:36:25;;;;;;;0.90;0.70;;;4.10;1.00;;;;;;5070494;28;21120;-73
2022/12/27 02:38:56;;;;;;;0.80;0.70;;;3.80;21.00;;;;;;5070850;28;20465;-73
2022/12/27 02:57:07;;;;;;;1.07;0.70;;;3.60;84.80;;;;;;5070731;28;20454;-73
2022/12/27 02:58:40;;;;;;;0.80;0.50;;;3.50;94.30;;;;;;5070393;28;20472;-73
2022/12/27 03:04:30;;;;;;;0.83;0.57;;;3.40;76.60;;;;;;5059273;28;20476;-73
2022/12/27 03:07:18;;;;;;;1.13;0.73;;;3.30;99.90;;;;;;5070442;28;20440;-73
2022/12/27 03:15:56;;;;;;;2.50;0.60;;;3.50;91.50;;;;;;5070512;28;20806;-73
2022/12/27 03:18:35;;;;;;;1.03;0.50;;;3.30;98.40;;;;;;5069618;28;20442;-73
2022/12/27 03:26:37;;;;;;;0.90;0.50;;;3.20;99.90;;;;;;5070473;28;20774;-73
2022/12/27 03:34:50;;;;;;;0.70;0.43;;;3.00;99.90;;;;;;5070495;28;20414;-73
2022/12/27 03:40:11;;;;;;;1.10;0.70;;;2.80;99.90;;;;;;5070026;28;20441;-73
2022/12/27 03:48:19;;;;;;;0.80;0.60;;;2.90;99.90;;;;;;5072374;28;20431;-73
2022/12/27 03:50:53;;;;;;;0.70;0.40;;;2.90;99.90;;;;;;5073444;28;20442;-73
2022/12/27 03:53:26;;;;;;;1.03;0.80;;;2.90;99.90;;;;;;5073345;28;20445;-73
2022/12/27 03:55:53;;;;;;;2.30;1.23;;;2.80;99.90;;;;;;5073579;28;20442;-73
2022/12/27 03:58:20;;;;;;;1.37;0.80;;;2.80;99.90;;;;;;5072483;28;20822;-73
2022/12/27 04:00:47;;;;;;;1.23;0.60;;;2.70;99.90;;;;;;5073640;28;20453;-73
2022/12/27 04:03:14;;;;;;;1.10;0.60;;;2.60;99.90;;;;;;5072646;28;20490;-73
2022/12/27 04:05:40;;;;;;;0.90;0.70;;;2.60;99.90;;;;;;5073611;28;20450;-73
2022/12/27 04:35:32;;;;;;;0.70;0.50;;;2.60;99.90;;;;;;5072937;28;20437;-72
2022/12/27 04:37:58;;;;;;;1.43;0.77;;;2.40;99.90;;;;;;5073430;28;20466;-73
2022/12/27 04:57:02;;;;;;;1.50;1.40;;;2.50;99.90;;;;;;5074104;28;20425;-73
2022/12/27 05:02:14;;;;;;;1.00;0.80;;;2.40;99.90;;;;;;5072131;28;20417;-74
2022/12/27 05:04:42;;;;;;;2.23;0.80;;;2.00;99.90;;;;;;5072355;28;20449;-73
2022/12/27 05:15:25;;;;;;;1.13;0.87;;;2.50;99.90;;;;;;5081920;28;20472;-73
2022/12/27 05:17:52;;;;;;;1.20;0.70;;;2.50;99.90;;;;;;5082892;28;20451;-74
2022/12/27 05:20:19;;;;;;;1.80;0.70;;;2.40;99.90;;;;;;5080576;28;20464;-74
2022/12/27 05:25:36;;;;;;;0.90;0.70;;;2.30;99.90;;;;;;5080973;28;20470;-73
2022/12/27 05:28:05;;;;;;;3.00;1.10;;;2.10;99.90;;;;;;5080782;28;20465;-72
2022/12/27 05:30:33;;;;;;;1.77;1.23;;;2.30;99.90;;;;;;5081354;28;20445;-73
2022/12/27 05:33:00;;;;;;;1.20;0.80;;;2.30;99.90;;;;;;5081462;28;20467;-72
2022/12/27 05:35:27;;;;;;;1.87;0.70;;;2.40;99.90;;;;;;5083253;28;20453;-72
2022/12/27 05:37:54;;;;;;;2.23;0.83;;;2.50;99.90;;;;;;5091047;28;20470;-74
2022/12/27 05:40:21;;;;;;;0.90;0.60;;;2.50;99.90;;;;;;5087990;28;20465;-73
2022/12/27 05:42:48;;;;;;;0.90;0.70;;;2.50;99.90;;;;;;5087650;28;20478;-74
2022/12/27 05:45:17;;;;;;;0.90;0.50;;;2.40;99.90;;;;;;5084547;28;20453;-74
2022/12/27 05:47:44;;;;;;;4.10;2.03;;;2.30;99.90;;;;;;5083097;28;20445;-74
2022/12/27 05:50:11;;;;;;;6.53;0.93;;;2.50;99.90;;;;;;5081622;28;20456;-74
2022/12/27 05:52:38;;;;;;;0.90;0.70;;;2.60;99.90;;;;;;5083119;28;20451;-74
2022/12/27 05:55:06;;;;;;;1.00;0.60;;;2.50;99.90;;;;;;5080262;28;20443;-74
2022/12/27 05:57:33;;;;;;;1.63;1.00;;;2.50;99.90;;;;;;5081904;28;20503;-73
2022/12/27 06:00:00;;;;;;;1.13;1.03;;;2.60;99.90;;;;;;5080870;28;20499;-73
2022/12/27 06:02:28;;;;;;;0.90;0.60;;;2.50;99.90;;;;;;5081343;28;20446;-73
2022/12/27 06:04:55;;;;;;;1.43;0.73;;;2.50;99.90;;;;;;5080303;28;20464;-73
2022/12/27 06:07:22;;;;;;;2.60;1.33;;;2.50;99.90;;;;;;5080325;28;20458;-73
2022/12/27 06:09:49;;;;;;;1.87;0.93;;;2.50;99.90;;;;;;5081921;28;20487;-73
2022/12/27 06:12:16;;;;;;;1.30;1.13;;;2.40;99.90;;;;;;5080426;28;20547;-74
2022/12/27 06:14:42;;;;;;;3.23;1.30;;;2.50;99.90;;;;;;5080905;28;20450;-73
2022/12/27 06:17:09;;;;;;;1.33;0.87;;;2.40;99.90;;;;;;5080816;28;20453;-73
2022/12/27 06:19:37;;;;;;;1.40;0.90;;;2.40;99.90;;;;;;5080989;28;20456;-73
2022/12/27 06:22:04;;;;;;;1.67;1.00;;;2.30;99.90;;;;;;5080955;28;20448;-73
2022/12/27 06:24:31;;;;;;;10.50;1.90;;;2.20;99.90;;;;;;5081549;28;20482;-73
2022/12/27 06:26:58;;;;;;;1.10;0.77;;;2.20;99.90;;;;;;5082051;28;20447;-73
2022/12/27 06:29:24;;;;;;;0.90;0.80;;;2.20;99.90;;;;;;5081541;28;20991;-74
2022/12/27 06:31:52;;;;;;;1.47;0.83;;;2.20;99.90;;;;;;5082213;28;20509;-73
2022/12/27 06:34:18;;;;;;;3.70;1.60;;;2.20;99.90;;;;;;5081618;28;20521;-74
2022/12/27 06:36:49;;;;;;;1.27;1.10;;;2.30;99.90;;;;;;5082065;28;20450;-73
2022/12/27 06:39:16;;;;;;;1.10;0.90;;;2.50;99.90;;;;;;5080664;28;20455;-73
2022/12/27 06:41:43;;;;;;;2.37;0.87;;;2.40;99.90;;;;;;5081762;28;20453;-73
2022/12/27 06:44:10;;;;;;;3.10;1.00;;;2.30;99.90;;;;;;5080226;28;20489;-74
2022/12/27 06:46:37;;;;;;;1.00;0.80;;;2.40;99.90;;;;;;5081102;28;20450;-73
2022/12/27 06:49:04;;;;;;;1.30;0.90;;;2.40;99.90;;;;;;5078484;28;20456;-74
2022/12/27 06:51:31;;;;;;;0.97;0.70;;;2.60;99.90;;;;;;5080625;28;20441;-72
2022/12/27 06:53:59;;;;;;;1.00;0.70;;;2.50;99.90;;;;;;5079815;28;20458;-73
2022/12/27 06:56:26;;;;;;;1.10;0.90;;;2.50;99.90;;;;;;5080250;28;20457;-73
2022/12/27 06:58:53;;;;;;;1.13;1.03;;;2.50;99.90;;;;;;5079622;28;20450;-73
2022/12/27 07:01:22;;;;;;;10.43;0.87;;;2.30;99.90;;;;;;5079179;28;20458;-75
2022/12/27 07:03:50;;;;;;;1.03;0.73;;;2.40;99.90;;;;;;5067230;28;20478;-73
2022/12/27 07:06:17;;;;;;;0.87;0.60;;;2.20;99.90;;;;;;5078882;28;21026;-73
2022/12/27 07:08:44;;;;;;;2.60;1.00;;;2.10;99.90;;;;;;5078924;28;20476;-73
2022/12/27 07:11:14;;;;;;;2.07;1.03;;;2.20;99.90;;;;;;5079750;28;20441;-73
2022/12/27 07:13:43;;;;;;;1.30;1.00;;;2.40;99.90;;;;;;5080239;28;20460;-73
2022/12/27 07:16:12;;;;;;;2.30;1.53;;;2.40;99.90;;;;;;5082774;28;20453;-75
2022/12/27 07:18:39;;;;;;;1.20;1.10;;;2.40;99.90;;;;;;5082098;28;20442;-73
2022/12/27 07:21:08;;;;;;;5.47;1.30;;;2.20;99.90;;;;;;5081971;28;20446;-75
2022/12/27 07:23:35;;;;;;;1.03;0.80;;;2.10;99.90;;;;;;5083015;28;20837;-73
2022/12/27 07:26:03;;;;;;;1.40;1.30;;;2.20;99.90;;;;;;5082890;28;20443;-74
2022/12/27 07:28:31;;;;;;;0.93;0.83;;;2.30;99.90;;;;;;5082032;28;20446;-73
2022/12/27 07:30:58;;;;;;;1.53;1.13;;;2.30;99.90;;;;;;5083435;28;20449;-74
2022/12/27 07:33:25;;;;;;;1.80;1.13;;;2.30;99.90;;;;;;5083142;28;20449;-73
2022/12/27 07:35:57;;;;;;;3.33;1.70;;;2.40;99.90;;;;;;5082233;28;20450;-74
2022/12/27 07:38:24;;;;;;;1.50;0.90;;;2.30;99.90;;;;;;5082292;28;20472;-75
2022/12/27 07:40:51;;;;;;;2.23;0.93;;;2.40;99.90;;;;;;5082113;28;20461;-74
2022/12/27 07:43:18;;;;;;;1.07;0.97;;;2.50;99.90;;;;;;5080540;28;20493;-74
2022/12/27 07:45:46;;;;;;;1.90;1.00;;;2.50;99.90;;;;;;5080902;28;20457;-74
2022/12/27 07:48:13;;;;;;;3.03;1.50;;;2.70;99.90;;;;;;5080031;28;20450;-74
2022/12/27 07:50:40;;;;;;;1.40;0.90;;;2.50;95.50;;;;;;5080709;28;20458;-74
2022/12/27 07:53:06;;;;;;;1.37;1.23;;;2.60;99.90;;;;;;5080547;28;20446;-74
2022/12/27 07:55:33;;;;;;;1.33;0.90;;;2.70;99.90;;;;;;5080620;28;20950;-73
2022/12/27 07:58:00;;;;;;;1.60;1.30;;;2.60;99.90;;;;;;5080871;28;20465;-73
2022/12/27 08:00:28;;;;;;;4.30;1.33;;;2.60;99.90;;;;;;5079933;28;20447;-74
2022/12/27 08:02:57;;;;;;;2.43;1.43;;;2.60;99.90;;;;;;5080319;28;20454;-73
2022/12/27 08:05:23;;;;;;;1.57;1.03;;;2.60;99.90;;;;;;5078977;28;20485;-73
2022/12/27 08:07:50;;;;;;;1.67;0.97;;;2.60;99.90;;;;;;5081606;28;20458;-71
2022/12/27 08:10:17;;;;;;;1.40;0.80;;;2.50;99.90;;;;;;5080272;28;20452;-73
2022/12/27 08:12:44;;;;;;;2.10;1.33;;;2.60;99.90;;;;;;5080341;28;20472;-73
2022/12/27 08:15:11;;;;;;;1.27;0.97;;;2.60;99.90;;;;;;5078788;28;20457;-73
2022/12/27 08:17:38;;;;;;;1.63;1.53;;;2.70;99.90;;;;;;5079827;28;20537;-73
2022/12/27 08:20:10;;;;;;;1.50;1.40;;;2.80;99.90;;;;;;5081368;28;20445;-74
2022/12/27 08:22:37;;;;;;;3.57;1.30;;;2.70;85.20;;;;;;5083554;28;20450;-74
2022/12/27 08:25:04;;;;;;;5.53;1.43;;;2.60;93.50;;;;;;5070087;28;20479;-74
2022/12/27 08:27:31;;;;;;;2.30;1.23;;;2.60;99.90;;;;;;5084806;28;20474;-74
2022/12/27 08:29:58;;;;;;;4.00;1.23;;;2.70;99.90;;;;;;5075502;28;20442;-75
2022/12/27 08:32:24;;;;;;;2.63;1.33;;;2.90;99.90;;;;;;5072786;28;20461;-74
2022/12/27 08:34:52;;;;;;;2.40;1.17;;;3.20;99.90;;;;;;5073837;28;20536;-73
2022/12/27 08:37:20;;;;;;;1.50;1.10;;;3.50;78.30;;;;;;5072781;28;20818;-73
2022/12/27 08:39:47;;;;;;;1.43;1.07;;;3.60;15.10;;;;;;5073044;28;20787;-74
2022/12/27 08:42:13;;;;;;;2.20;1.70;;;3.80;1.00;;;;;;5072626;28;20459;-74
2022/12/27 08:44:40;;;;;;;2.10;1.90;;;3.90;1.00;;;;;;5073684;28;20492;-73
2022/12/27 08:47:07;;;;;;;3.80;1.60;;;3.90;1.00;;;;;;5073131;28;20452;-73
2022/12/27 08:49:34;;;;;;;1.80;1.63;;;3.90;1.00;;;;;;5072989;28;20458;-74
2022/12/27 08:52:01;;;;;;;5.60;1.70;;;4.00;1.00;;;;;;5072436;28;20452;-72
2022/12/27 08:54:29;;;;;;;3.30;1.53;;;4.00;1.00;;;;;;5073290;28;20455;-73
2022/12/27 08:56:56;;;;;;;2.33;1.50;;;4.00;1.00;;;;;;5073361;28;21465;-73
2022/12/27 08:59:22;;;;;;;4.10;1.93;;;4.00;1.00;;;;;;5072041;28;20448;-73
2022/12/27 09:01:49;;;;;;;2.93;1.20;;;4.20;1.00;;;;;;5072946;28;20450;-73
2022/12/27 09:04:16;;;;;;;2.13;1.37;;;4.50;1.00;;;;;;5071704;28;20832;-73
2022/12/27 09:06:43;;;;;;;3.07;1.90;;;4.50;1.00;;;;;;5072588;28;20941;-73
2022/12/27 09:09:10;;;;;;;5.00;2.30;;;4.50;1.00;;;;;;5071609;28;20474;-73
2022/12/27 09:11:38;;;;;;;4.50;1.83;;;4.50;1.00;;;;;;5072227;28;20977;-73
2022/12/27 09:14:05;;;;;;;1.60;1.50;;;4.50;1.00;;;;;;5071967;28;20462;-72
2022/12/27 09:16:34;;;;;;;1.50;1.30;;;4.70;1.00;;;;;;5072446;28;20450;-73
2022/12/27 09:19:02;;;;;;;3.83;1.67;;;4.70;1.00;;;;;;5071421;28;20488;-72
2022/12/27 09:21:32;;;;;;;3.10;1.70;;;4.70;1.00;;;;;;5072121;28;20453;-73
2022/12/27 09:24:00;;;;;;;5.57;1.80;;;4.80;1.00;;;;;;5072025;28;20559;-73
2022/12/27 09:26:28;;;;;;;3.73;3.37;;;4.90;1.00;;;;;;5072313;28;20443;-73
2022/12/27 09:28:57;;;;;;;3.70;1.67;;;4.80;1.00;;;;;;5071775;28;20456;-73
2022/12/27 09:31:25;;;;;;;2.43;1.67;;;5.00;1.00;;;;;;5071662;28;20460;-73
2022/12/27 09:33:52;;;;;;;1.50;1.30;;;5.00;1.00;;;;;;5072072;28;20457;-73
2022/12/27 09:36:22;;;;;;;2.07;1.70;;;5.00;1.00;;;;;;5071535;28;20569;-73
2022/12/27 09:38:51;;;;;;;2.70;1.73;;;5.00;99.90;;;;;;5070909;28;20452;-73
2022/12/27 09:41:21;;;;;;;2.57;1.50;;;5.20;99.90;;;;;;5071168;28;20953;-73
2022/12/27 09:44:00;;;;;;;1.87;0.97;;;5.20;99.90;;;;;;5071831;28;20443;-73
2022/12/27 09:46:33;;;;;;;1.73;0.97;;;5.20;1.00;;;;;;5071823;28;20444;-73
2022/12/27 09:49:00;;;;;;;1.63;1.00;;;5.30;1.00;;;;;;5071050;28;20454;-72
2022/12/27 09:51:32;;;;;;;1.10;0.90;;;5.50;99.90;;;;;;5071939;28;20574;-73
2022/12/27 09:54:04;;;;;;;1.43;0.80;;;5.50;99.90;;;;;;5071729;28;20449;-73
2022/12/27 09:56:35;;;;;;;1.40;1.23;;;5.50;1.00;;;;;;5071609;28;20943;-73
2022/12/27 09:59:09;;;;;;;1.20;0.70;;;5.50;99.90;;;;;;5070666;28;20452;-72
2022/12/27 10:01:39;;;;;;;1.43;0.70;;;5.60;37.40;;;;;;5071342;28;20441;-73
2022/12/27 10:04:11;;;;;;;3.53;1.60;;;5.70;99.90;;;;;;5070679;28;20484;-72
2022/12/27 10:07:13;;;;;;;1.10;0.87;;;5.80;99.90;;;;;;5071593;28;20483;-73
2022/12/27 10:10:00;;;;;;;0.97;0.77;;;5.70;73.60;;;;;;5071106;28;20820;-74
2022/12/27 10:12:49;;;;;;;1.00;0.90;;;5.80;99.90;;;;;;5071499;28;20444;-73
2022/12/27 10:15:26;;;;;;;1.57;0.70;;;5.90;99.90;;;;;;5057858;28;20884;-73
2022/12/27 10:18:03;;;;;;;0.80;0.60;;;6.00;1.00;;;;;;5071024;28;20463;-73
2022/12/27 10:20:41;;;;;;;1.20;0.70;;;6.00;1.00;;;;;;5071324;28;20428;-73
2022/12/27 10:23:12;;;;;;;2.33;1.10;;;6.00;99.90;;;;;;5070817;28;20495;-73
2022/12/27 10:25:40;;;;;;;3.13;1.33;;;6.10;99.90;;;;;;5071063;28;20473;-73
2022/12/27 10:28:13;;;;;;;1.33;0.70;;;6.20;99.90;;;;;;5070334;28;20449;-73
2022/12/27 10:30:42;;;;;;;1.03;0.70;;;6.30;14.40;;;;;;5071148;28;20445;-73
2022/12/27 10:33:19;;;;;;;3.30;1.00;;;6.40;1.00;;;;;;5070524;28;20966;-72
2022/12/27 10:35:46;;;;;;;2.13;1.10;;;6.40;71.30;;;;;;5071147;28;20475;-73
2022/12/27 10:38:13;;;;;;;3.60;1.43;;;6.50;1.00;;;;;;5069893;28;20468;-73
2022/12/27 10:40:48;;;;;;;3.00;1.03;;;6.60;1.00;;;;;;5070841;28;20522;-73
2022/12/27 10:43:19;;;;;;;1.40;1.07;;;6.60;1.00;;;;;;5070364;28;20449;-73
2022/12/27 10:45:47;;;;;;;1.07;0.90;;;6.70;99.90;;;;;;5070857;28;20491;-73
2022/12/27 10:48:18;;;;;;;1.10;0.80;;;6.70;1.00;;;;;;5070126;28;20455;-73
2022/12/27 10:50:53;;;;;;;2.20;0.80;;;6.80;1.00;;;;;;5074238;28;20951;-73
2022/12/27 10:53:33;;;;;;;1.90;0.70;;;6.80;1.00;;;;;;5074593;28;20891;-73
2022/12/27 10:56:08;;;;;;;2.90;1.43;;;7.00;99.90;;;;;;5075041;28;20796;-72
2022/12/27 10:58:40;;;;;;;0.90;0.70;;;7.00;99.90;;;;;;5074367;28;20968;-73
2022/12/27 11:01:16;;;;;;;4.07;1.57;;;7.10;99.90;;;;;;5074107;28;20926;-73
2022/12/27 11:03:43;;;;;;;1.77;0.97;;;7.20;1.00;;;;;;5075256;28;20845;-73
2022/12/27 11:06:22;;;;;;;5.97;1.37;;;7.30;1.00;;;;;;5074504;28;20511;-72
2022/12/27 11:08:50;;;;;;;2.07;0.80;;;7.30;99.90;;;;;;5074252;28;20483;-73
2022/12/27 11:11:19;;;;;;;0.80;0.70;;;;;;;;;;5074194;28;20493;-73
2022/12/27 11:13:47;;;;;;;1.00;0.90;;;;;;;;;;5074799;28;20478;-73
2022/12/27 11:16:17;;;;;;;0.90;0.70;;;;;;;;;;5073676;28;20455;-73
2022/12/27 11:18:46;;;;;;;1.33;0.77;;;;;;;;;;5074277;28;20493;-73
2022/12/27 11:21:14;;;;;;;1.90;1.20;;;;;;;;;;5073960;28;20451;-72
2022/12/27 11:23:44;;;;;;;2.13;1.10;;;;;;;;;;5074325;28;20452;-73
2022/12/27 11:26:18;;;;;;;3.50;0.70;;;;;;;;;;5073749;28;20487;-73
2022/12/27 11:28:49;;;;;;;1.00;0.70;;;;;;;;;;5073704;28;20450;-73
2022/12/27 11:31:19;;;;;;;2.10;0.70;;;;;;;;;;5073441;28;20447;-72
2022/12/27 11:33:47;;;;;;;3.97;1.00;;;;;;;;;;5074368;28;20459;-73
2022/12/27 11:36:16;;;;;;;1.17;0.97;;;;;;;;;;5073752;28;20477;-72
2022/12/27 11:38:46;;;;;;;1.17;0.83;;;;;;;;;;5073556;28;20455;-72
2022/12/27 11:41:17;;;;;;;1.00;0.70;;;;;;;;;;5073753;28;20453;-73
2022/12/27 11:43:47;;;;;;;2.30;0.60;;;;;;;;;;5074187;28;20451;-72
2022/12/27 11:46:22;;;;;;;0.90;0.73;;;;;;;;;;5073062;28;20967;-72
2022/12/27 11:48:54;;;;;;;2.13;0.80;;;;;;;;;;5073576;28;20440;-73
2022/12/27 11:51:41;;;;;;;4.33;0.90;;;;;;;;;;5073299;28;20916;-72
2022/12/27 11:54:19;;;;;;;6.30;0.80;;;;;;;;;;5060886;28;20457;-72
2022/12/27 11:56:48;;;;;;;1.00;0.70;;;;;;;;;;5073902;28;20468;-73
2022/12/27 11:59:26;;;;;;;0.60;0.40;;;;;;;;;;5072999;28;20448;-72
2022/12/27 12:02:15;;;;;;;1.07;0.70;;;;;;;;;;5072688;28;20821;-72
2022/12/27 12:04:55;;;;;;;2.20;0.60;;;;;;;;;;5073713;28;20476;-72
2022/12/27 12:07:32;;;;;;;1.00;0.70;;;;;;;;;;5072953;28;20831;-72
2022/12/27 12:10:09;;;;;;;1.13;0.70;;;;;;;;;;5073921;28;20483;-73
2022/12/27 12:12:52;;;;;;;1.07;0.70;;;;;;;;;;5073804;28;20455;-72
2022/12/27 12:15:34;;;;;;;1.37;0.90;;;;;;;;;;5073184;28;20456;-72
2022/12/27 12:18:13;;;;;;;1.13;0.70;;;;;;;;;;5072782;28;20446;-72
2022/12/27 12:20:58;;;;;;;2.20;0.90;;;;;;;;;;5073660;28;20452;-72
2022/12/27 12:23:32;;;;;;;0.87;0.70;;;;;;;;;;5061803;28;20530;-72
2022/12/27 12:26:08;;;;;;;1.13;1.03;;;;;;;;;;5073412;28;20483;-73
2022/12/27 12:28:47;;;;;;;1.63;0.73;;;;;;;;;;5073134;28;20462;-72
2022/12/27 12:31:20;;;;;;;1.50;0.63;;;;;;;;;;5072659;28;20452;-72
2022/12/27 12:34:05;;;;;;;1.57;1.37;;;;;;;;;;5073401;28;20440;-73
2022/12/27 12:36:49;;;;;;;1.53;1.17;;;;;;;;;;5073363;28;20466;-73
2022/12/27 12:39:22;;;;;;;1.33;1.23;;;;;;;;;;5071900;28;20456;-72
2022/12/27 12:42:04;;;;;;;1.00;0.77;;;;;;;;;;5073195;28;20442;-73
2022/12/27 12:44:43;;;;;;;2.03;0.70;;;;;;;;;;5073015;28;20447;-73
2022/12/27 12:47:18;;;;;;;1.30;1.03;;;;;;;;;;5072435;28;20472;-72
2022/12/27 12:49:50;;;;;;;1.57;0.80;;;;;;;;;;5072654;28;20450;-72
2022/12/27 12:52:25;;;;;;;1.50;1.23;;;;;;;;;;5072276;28;20448;-72
2022/12/27 12:55:07;;;;;;;1.77;1.67;;;;;;;;;;5072711;28;20530;-72
2022/12/27 12:57:40;;;;;;;2.20;0.87;;;;;;;;;;5070839;28;20460;-73
2022/12/27 13:00:18;;;;;;;3.43;1.20;;;;;;;;;;5071950;28;20449;-72
2022/12/27 13:03:18;;;;;;;1.10;0.90;;;;;;;;;;5072565;28;20441;-72
2022/12/27 13:05:47;;;;;;;4.60;0.87;;;;;;;;;;5019423;28;20498;-72
2022/12/27 13:08:23;;;;;;;1.53;0.97;;;;;;;;;;5028973;28;20483;-73
2022/12/27 13:10:58;;;;;;;1.13;0.70;;;;;;;;;;5051969;28;20817;-73
2022/12/27 13:13:31;;;;;;;1.13;0.90;;;;;;;;;;5072180;28;20507;-72
2022/12/27 13:16:03;;;;;;;1.57;0.80;;;;;;;;;;5072471;28;20445;-73
2022/12/27 13:18:35;;;;;;;2.13;1.23;;;;;;;;;;5064256;28;20437;-73
2022/12/27 13:21:15;;;;;;;1.17;0.80;;;;;;;;;;5071845;28;20446;-73
2022/12/27 13:23:47;;;;;;;1.70;0.90;;;;;;;;;;5072321;28;20473;-73
2022/12/27 13:26:18;;;;;;;1.37;0.90;;;;;;;;;;5071692;28;20833;-73
2022/12/27 13:28:50;;;;;;;1.80;1.43;;;;;;;;;;5071828;28;20446;-73
2022/12/27 13:31:25;;;;;;;1.73;0.87;;;;;;;;;;5071478;28;20473;-73
2022/12/27 13:33:57;;;;;;;1.80;0.90;;;;;;;;;;5071851;28;20948;-73
2022/12/27 13:36:26;;;;;;;1.17;1.00;;;;;;;;;;5071954;28;20479;-73
2022/12/27 13:39:08;;;;;;;2.83;1.03;;;;;;;;;;5071848;28;20461;-73
2022/12/27 13:41:44;;;;;;;2.33;1.60;;;;;;;;;;5072630;28;20459;-73
2022/12/27 13:44:30;;;;;;;1.20;0.60;;;;;;;;;;5072664;28;20448;-73
2022/12/27 13:47:08;;;;;;;1.17;0.90;;;;;;;;;;5073416;28;20492;-73
2022/12/27 13:49:46;;;;;;;1.70;0.90;;;;;;;;;;5074094;28;20453;-72
2022/12/27 13:52:21;;;;;;;1.20;0.70;;;;;;;;;;5076163;28;20449;-72
2022/12/27 13:55:01;;;;;;;0.97;0.60;;;;;;;;;;5076570;28;20939;-72
2022/12/27 13:57:37;;;;;;;2.73;0.90;;;;;;;;;;5076185;28;20935;-72
2022/12/27 14:00:11;;;;;;;1.40;0.83;;;;;;;;;;5076201;28;20449;-72
2022/12/27 14:02:59;;;;;;;3.40;1.33;;;;;;;;;;5078225;28;20445;-72
2022/12/27 14:06:00;;;;;;;1.80;0.93;;;;;;;;;;5078159;28;20509;-72
2022/12/27 14:08:36;;;;;;;0.90;0.60;;;;;;;;;;5078123;28;20473;-72
2022/12/27 14:11:12;;;;;;;1.80;1.00;;;;;;;;;;5076921;28;20445;-72
2022/12/27 14:13:43;;;;;;;4.80;0.90;;;;;;;;;;5064185;28;20940;-72
2022/12/27 14:16:23;;;;;;;3.67;1.10;;;;;;;;;;5071565;28;20453;-74
2022/12/27 14:18:57;;;;;;;1.00;0.60;;;;;;;;;;5071619;28;20456;-73
2022/12/27 14:21:43;;;;;;;1.43;0.70;;;;;;;;;;5071764;28;20454;-73
2022/12/27 14:24:18;;;;;;;1.03;0.60;;;;;;;;;;5070134;28;20454;-73
2022/12/27 14:27:19;;;;;;;1.17;0.70;;;;;;;;;;5071324;28;20465;-73
2022/12/27 14:30:00;;;;;;;2.20;0.83;;;;;;;;;;5057649;28;20455;-73
2022/12/27 14:32:48;;;;;;;1.03;0.80;;;;;;;;;;5071478;28;20816;-73
2022/12/27 14:35:36;;;;;;;1.33;0.90;;;;;;;;;;5053103;28;20458;-73
2022/12/27 14:38:32;;;;;;;3.83;1.30;;;;;;;;;;5070507;28;20454;-73
2022/12/27 14:41:32;;;;;;;1.10;0.80;;;;;;;;;;5071316;28;20452;-74
2022/12/27 14:44:16;;;;;;;1.03;0.70;;;;;;;;;;5071297;28;20447;-73
2022/12/27 14:47:04;;;;;;;2.27;1.20;;;;;;;;;;5070962;28;20473;-73
2022/12/27 14:49:51;;;;;;;1.87;0.80;;;;;;;;;;5071239;28;21023;-73
2022/12/27 14:52:42;;;;;;;1.03;0.73;;;;;;;;;;5070442;28;20444;-73
2022/12/27 14:55:28;;;;;;;1.13;0.70;;;;;;;;;;5070588;28;20435;-73
2022/12/27 14:58:04;;;;;;;1.60;0.70;;;;;;;;;;5071189;28;20454;-73
2022/12/27 15:00:49;;;;;;;1.57;0.70;;;;;;;;;;5070979;28;20455;-73
2022/12/27 15:03:21;;;;;;;1.23;0.80;;;;;;;;;;5070037;28;20449;-73
2022/12/27 15:05:56;;;;;;;2.90;0.67;;;;;;;;;;5070723;28;20810;-73
2022/12/27 15:08:43;;;;;;;2.00;1.13;;;;;;;;;;5069697;28;20479;-73
2022/12/27 15:11:26;;;;;;;1.47;1.37;;;7.40;1.00;;;;;;5070620;28;20440;-73
2022/12/27 15:14:10;;;;;;;3.97;0.83;;;7.40;1.00;;;;;;5070886;28;20436;-73
2022/12/27 15:16:49;;;;;;;1.00;0.70;;;7.30;1.00;;;;;;5070791;28;20445;-73
2022/12/27 15:19:39;;;;;;;1.30;0.97;;;7.30;1.00;;;;;;5069693;28;20451;-73
2022/12/27 15:22:17;;;;;;;1.63;1.00;;;7.20;1.00;;;;;;5059746;28;20935;-72
2022/12/27 15:24:52;;;;;;;2.43;1.57;;;7.20;1.00;;;;;;5070806;28;20447;-72
2022/12/27 15:27:27;;;;;;;1.40;0.70;;;7.20;1.00;;;;;;5069860;28;20473;-72
2022/12/27 15:30:16;;;;;;;1.27;0.97;;;7.20;1.00;;;;;;5058673;28;20446;-72
2022/12/27 15:32:52;;;;;;;3.33;0.93;;;7.00;39.40;;;;;;5070207;28;20927;-72
2022/12/27 15:35:38;;;;;;;11.47;1.60;;;7.00;99.90;;;;;;5070976;28;20447;-72
2022/12/27 15:38:12;;;;;;;1.27;0.93;;;6.90;99.90;;;;;;5061816;28;20460;-72
2022/12/27 15:41:15;;;;;;;4.07;1.20;;;6.70;99.90;;;;;;5074161;28;20475;-72
2022/12/27 15:44:06;;;;;;;2.53;1.30;;;6.60;99.90;;;;;;5073958;28;20446;-72